Time;durP1;ratioP1;P1;durP2;ratioP2;P2;SDS_P1;SDS_P2;PMS_P1;PMS_P2;Temp;Humidity;BMP_temperature;BMP_pressure;BME280_temperature;BME280_humidity;BME280_pressure;Samples;Min_cycle;Max_cycle;Signal;HPM_P1;HPM_P2
2022/11/22 00:01:14;;;;;;;13.00;6.80;;;8.00;99.90;;;;;;5073152;28;20224;-89
2022/11/22 00:03:45;;;;;;;9.70;6.10;;;7.90;99.90;;;;;;5054766;28;20208;-88
2022/11/22 00:06:16;;;;;;;8.53;6.17;;;7.90;99.90;;;;;;5056866;28;20211;-88
2022/11/22 00:08:47;;;;;;;9.83;6.27;;;7.90;99.90;;;;;;5094448;28;20209;-88
2022/11/22 00:11:18;;;;;;;11.23;6.23;;;7.90;99.90;;;;;;5074644;28;20228;-88
2022/11/22 00:13:48;;;;;;;12.03;6.23;;;7.80;99.90;;;;;;5073680;28;20250;-88
2022/11/22 00:16:21;;;;;;;11.80;6.57;;;7.80;99.90;;;;;;5074493;28;20215;-89
2022/11/22 00:18:51;;;;;;;11.47;6.37;;;7.80;99.90;;;;;;5073742;28;20752;-89
2022/11/22 00:21:22;;;;;;;7.67;5.57;;;7.80;99.90;;;;;;5063849;28;20200;-88
2022/11/22 00:23:57;;;;;;;6.87;5.83;;;7.80;99.90;;;;;;5072702;28;20239;-89
2022/11/22 00:26:28;;;;;;;9.40;5.93;;;7.70;99.90;;;;;;5070056;28;20731;-87
2022/11/22 00:28:58;;;;;;;9.23;6.30;;;7.70;99.90;;;;;;5076931;28;20208;-88
2022/11/22 00:31:31;;;;;;;12.90;6.43;;;7.70;99.90;;;;;;5062649;28;20258;-88
2022/11/22 00:34:02;;;;;;;10.70;6.37;;;7.70;99.90;;;;;;5066290;28;20287;-88
2022/11/22 00:36:33;;;;;;;10.87;6.57;;;7.70;99.90;;;;;;5073221;28;20287;-89
2022/11/22 00:39:03;;;;;;;11.97;6.30;;;7.60;99.90;;;;;;5066344;28;20296;-89
2022/11/22 00:41:34;;;;;;;12.73;6.33;;;7.70;99.90;;;;;;5081929;28;20659;-89
2022/11/22 00:44:05;;;;;;;9.73;6.23;;;7.60;99.90;;;;;;5092974;28;20205;-88
2022/11/22 00:46:37;;;;;;;7.63;6.03;;;7.50;99.90;;;;;;5079460;28;20281;-88
2022/11/22 00:49:08;;;;;;;9.43;6.23;;;7.60;99.90;;;;;;5076103;28;20214;-89
2022/11/22 00:51:39;;;;;;;10.17;6.10;;;7.60;99.90;;;;;;5079543;28;20230;-88
2022/11/22 00:54:10;;;;;;;12.10;5.93;;;7.50;99.90;;;;;;5081324;28;20264;-88
2022/11/22 00:56:40;;;;;;;11.73;6.47;;;7.60;99.90;;;;;;5067556;28;20307;-89
2022/11/22 00:59:11;;;;;;;10.63;6.27;;;7.50;99.90;;;;;;5080063;28;20231;-89
2022/11/22 01:01:44;;;;;;;10.03;6.70;;;7.50;99.90;;;;;;5072058;28;20242;-90
2022/11/22 01:04:15;;;;;;;8.07;6.40;;;7.50;99.90;;;;;;5073150;28;20204;-89
2022/11/22 01:06:45;;;;;;;10.50;6.57;;;7.50;99.90;;;;;;5076909;28;20200;-89
2022/11/22 01:09:20;;;;;;;8.93;6.20;;;7.50;99.90;;;;;;5094406;28;20278;-89
2022/11/22 01:11:51;;;;;;;9.57;6.07;;;7.50;99.90;;;;;;5097858;28;20257;-88
2022/11/22 01:14:22;;;;;;;10.97;6.23;;;7.50;99.90;;;;;;5089925;28;20290;-88
2022/11/22 01:16:54;;;;;;;10.10;6.37;;;7.50;99.90;;;;;;5077507;28;20235;-89
2022/11/22 01:19:25;;;;;;;10.63;6.50;;;7.40;99.90;;;;;;5076794;28;20217;-87
2022/11/22 01:21:56;;;;;;;10.00;6.00;;;7.40;99.90;;;;;;5072194;28;20230;-87
2022/11/22 01:24:27;;;;;;;9.10;6.27;;;7.40;99.90;;;;;;5076927;28;20231;-88
2022/11/22 01:26:58;;;;;;;7.77;5.90;;;7.40;99.90;;;;;;5063112;28;20281;-88
2022/11/22 01:29:28;;;;;;;12.00;6.20;;;7.40;99.90;;;;;;5078785;28;20207;-88
2022/11/22 01:32:01;;;;;;;9.13;5.90;;;7.40;99.90;;;;;;5076504;28;20207;-88
2022/11/22 01:34:32;;;;;;;13.63;6.27;;;7.40;99.90;;;;;;5077292;28;20667;-88
2022/11/22 01:37:02;;;;;;;14.43;7.13;;;7.40;99.90;;;;;;5077577;28;20231;-88
2022/11/22 01:39:33;;;;;;;9.23;6.33;;;7.30;99.90;;;;;;5077672;28;20227;-88
2022/11/22 01:42:04;;;;;;;7.80;6.13;;;7.30;99.90;;;;;;5070841;28;20287;-89
2022/11/22 01:44:34;;;;;;;9.10;6.40;;;7.30;99.90;;;;;;5057922;28;20692;-89
2022/11/22 01:47:11;;;;;;;10.03;6.37;;;7.30;99.90;;;;;;5071754;28;20210;-88
2022/11/22 01:49:45;;;;;;;9.60;7.10;;;7.20;99.90;;;;;;5077074;28;20272;-89
2022/11/22 01:52:19;;;;;;;9.03;6.27;;;7.20;99.90;;;;;;5090698;28;20499;-88
2022/11/22 01:54:52;;;;;;;9.07;6.53;;;7.10;99.90;;;;;;5091411;28;20199;-88
2022/11/22 01:57:27;;;;;;;9.17;6.00;;;7.10;99.90;;;;;;5087386;28;20307;-88
2022/11/22 02:00:01;;;;;;;11.27;7.23;;;7.00;99.90;;;;;;5083669;28;20253;-88
2022/11/22 02:02:35;;;;;;;10.00;6.43;;;7.00;99.90;;;;;;5077176;28;20187;-87
2022/11/22 02:05:10;;;;;;;10.00;6.67;;;7.10;99.90;;;;;;5077103;28;20213;-89
2022/11/22 02:07:48;;;;;;;17.07;7.13;;;7.00;99.90;;;;;;5078166;28;20238;-88
2022/11/22 02:10:22;;;;;;;11.47;7.37;;;7.00;99.90;;;;;;5080905;28;20208;-88
2022/11/22 02:12:55;;;;;;;13.30;6.90;;;7.00;99.90;;;;;;5084308;28;20297;-88
2022/11/22 02:15:25;;;;;;;10.50;7.13;;;7.00;99.90;;;;;;5098603;28;20283;-88
2022/11/22 02:17:58;;;;;;;10.57;7.13;;;7.00;99.90;;;;;;5078797;28;20291;-87
2022/11/22 02:20:28;;;;;;;8.33;6.50;;;7.00;99.90;;;;;;5072451;28;20200;-88
2022/11/22 02:23:06;;;;;;;13.10;6.30;;;7.00;99.90;;;;;;5089474;28;20557;-87
2022/11/22 02:25:49;;;;;;;10.83;6.27;;;7.00;99.90;;;;;;5087548;28;20264;-88
2022/11/22 02:28:20;;;;;;;12.53;8.57;;;7.00;99.90;;;;;;5096130;28;20231;-88
2022/11/22 02:30:52;;;;;;;18.20;10.73;;;6.90;99.90;;;;;;5096852;28;20293;-90
2022/11/22 02:33:24;;;;;;;12.67;8.20;;;6.90;99.90;;;;;;5079369;28;20295;-89
2022/11/22 02:35:54;;;;;;;15.73;9.87;;;6.90;99.90;;;;;;5079937;28;20650;-89
2022/11/22 02:38:27;;;;;;;17.63;9.37;;;6.80;99.90;;;;;;5091962;28;20628;-89
2022/11/22 02:41:03;;;;;;;15.33;9.93;;;6.80;99.90;;;;;;5074896;28;20299;-89
2022/11/22 02:43:36;;;;;;;13.27;9.10;;;6.80;99.90;;;;;;5073216;28;20664;-88
2022/11/22 02:46:08;;;;;;;12.93;7.63;;;6.70;99.90;;;;;;5058182;28;20291;-89
2022/11/22 02:48:43;;;;;;;11.50;7.00;;;6.60;99.90;;;;;;5070289;28;20719;-86
2022/11/22 02:51:15;;;;;;;10.13;6.97;;;6.50;99.90;;;;;;5074649;28;20319;-88
2022/11/22 02:53:47;;;;;;;13.70;7.67;;;6.50;99.90;;;;;;5059726;28;20203;-90
2022/11/22 02:56:19;;;;;;;10.17;6.97;;;6.50;99.90;;;;;;5070306;28;20222;-88
2022/11/22 02:58:50;;;;;;;13.40;7.50;;;6.50;99.90;;;;;;5075442;28;20555;-88
2022/11/22 03:01:21;;;;;;;11.13;7.47;;;6.40;99.90;;;;;;5072231;28;20203;-87
2022/11/22 03:03:52;;;;;;;11.30;6.63;;;6.40;99.90;;;;;;5073064;28;20298;-87
2022/11/22 03:06:23;;;;;;;12.87;6.93;;;6.40;99.90;;;;;;5069380;28;20215;-89
2022/11/22 03:08:54;;;;;;;10.57;6.90;;;6.30;99.90;;;;;;5078891;28;20675;-91
2022/11/22 03:11:27;;;;;;;9.63;6.63;;;6.30;99.90;;;;;;5072972;28;20560;-90
2022/11/22 03:13:58;;;;;;;8.77;6.13;;;6.30;99.90;;;;;;5058045;28;20215;-89
2022/11/22 03:16:30;;;;;;;11.63;7.03;;;6.20;99.90;;;;;;5077278;28;20210;-89
2022/11/22 03:19:01;;;;;;;13.83;6.93;;;6.20;99.90;;;;;;5074885;28;20473;-88
2022/11/22 03:21:33;;;;;;;8.50;6.20;;;6.20;99.90;;;;;;5086762;28;20247;-89
2022/11/22 03:24:04;;;;;;;12.10;6.63;;;6.20;99.90;;;;;;5071384;28;20279;-90
2022/11/22 03:26:39;;;;;;;9.20;6.73;;;6.10;99.90;;;;;;5070226;28;20239;-89
2022/11/22 03:29:09;;;;;;;11.40;6.30;;;6.20;99.90;;;;;;5073361;28;20743;-91
2022/11/22 03:35:20;;;;;;;9.73;6.03;;;6.30;99.90;;;;;;5031415;27;2680086;-89
2022/11/22 03:37:51;;;;;;;7.47;5.30;;;6.40;99.90;;;;;;5115038;28;20252;-88
2022/11/22 03:40:22;;;;;;;9.13;5.80;;;6.40;99.90;;;;;;5125922;27;20304;-89
2022/11/22 03:42:52;;;;;;;9.20;5.87;;;6.50;99.90;;;;;;5136616;27;20236;-89
2022/11/22 03:45:23;;;;;;;12.27;6.30;;;6.50;99.90;;;;;;5147968;27;20197;-87
2022/11/22 03:47:54;;;;;;;7.93;5.83;;;6.60;99.90;;;;;;5114566;28;20266;-89
2022/11/22 03:50:27;;;;;;;9.80;6.57;;;6.60;99.90;;;;;;5125649;28;20198;-90
2022/11/22 03:52:57;;;;;;;11.37;7.63;;;6.60;99.90;;;;;;5128316;27;20320;-89
2022/11/22 03:55:32;;;;;;;11.10;7.07;;;6.60;99.90;;;;;;5125984;27;20206;-88
2022/11/22 03:58:03;;;;;;;9.87;7.03;;;6.60;99.90;;;;;;5126955;27;20197;-89
2022/11/22 04:00:36;;;;;;;9.23;6.80;;;6.60;99.90;;;;;;5152308;27;20185;-90
2022/11/22 04:03:07;;;;;;;9.20;6.17;;;6.60;99.90;;;;;;5153098;27;20201;-88
2022/11/22 04:05:39;;;;;;;8.63;6.60;;;6.60;99.90;;;;;;5125630;27;20263;-90
2022/11/22 04:08:11;;;;;;;8.83;6.33;;;6.60;99.90;;;;;;5122588;27;20403;-89
2022/11/22 04:10:42;;;;;;;7.43;5.60;;;6.70;99.90;;;;;;5127465;27;20316;-88
2022/11/22 04:13:13;;;;;;;8.87;6.37;;;6.70;99.90;;;;;;5138657;27;20264;-89
2022/11/22 04:15:42;;;;;;;8.77;6.00;;;6.70;99.90;;;;;;5139012;27;20615;-88
2022/11/22 04:18:14;;;;;;;8.97;6.70;;;6.70;99.90;;;;;;5128167;27;20247;-89
2022/11/22 04:23:41;;;;;;;8.23;5.47;;;6.70;99.90;;;;;;5122608;27;20243;-89
2022/11/22 04:26:11;;;;;;;8.07;5.97;;;6.70;99.90;;;;;;5149361;27;20836;-90
2022/11/22 04:28:43;;;;;;;9.47;6.27;;;6.70;99.90;;;;;;5132628;27;20697;-89
2022/11/22 04:34:21;;;;;;;7.43;5.57;;;6.70;99.90;;;;;;5132314;27;20246;-90
2022/11/22 04:36:54;;;;;;;10.90;6.30;;;6.70;99.90;;;;;;5139690;27;21138;-89
2022/11/22 04:39:26;;;;;;;7.37;5.80;;;6.80;99.90;;;;;;5134059;27;20857;-88
2022/11/22 04:44:43;;;;;;;8.87;6.07;;;6.70;99.90;;;;;;5136717;27;20270;-89
2022/11/22 04:47:57;;;;;;;9.17;5.90;;;6.70;99.90;;;;;;5105080;28;20246;-90
2022/11/22 04:52:58;;;;;;;8.43;6.00;;;6.80;99.90;;;;;;5112807;28;20209;-89
2022/11/22 04:55:28;;;;;;;8.30;5.77;;;6.80;99.90;;;;;;5121420;27;20254;-90
2022/11/22 04:57:59;;;;;;;9.63;5.90;;;6.80;99.90;;;;;;5116863;27;20707;-89
2022/11/22 05:00:32;;;;;;;7.67;5.77;;;6.80;99.90;;;;;;5117392;27;20202;-89
2022/11/22 05:03:04;;;;;;;10.10;5.97;;;6.80;99.90;;;;;;5105060;28;20206;-89
2022/11/22 05:05:37;;;;;;;9.10;6.23;;;6.90;99.90;;;;;;5114415;28;20245;-89
2022/11/22 05:08:11;;;;;;;7.00;5.53;;;6.80;99.90;;;;;;5132613;27;20206;-89
2022/11/22 05:10:58;;;;;;;8.40;6.10;;;6.90;99.90;;;;;;5114994;27;20273;-89
2022/11/22 05:13:31;;;;;;;8.17;5.70;;;6.90;99.90;;;;;;5131922;27;20265;-88
2022/11/22 05:16:03;;;;;;;7.83;5.40;;;6.80;99.90;;;;;;5119051;27;20656;-89
2022/11/22 05:18:35;;;;;;;9.53;6.10;;;6.90;99.90;;;;;;5110584;27;20198;-89
2022/11/22 05:21:07;;;;;;;8.60;6.40;;;7.00;99.90;;;;;;5112852;27;20195;-88
2022/11/22 05:23:54;;;;;;;9.03;6.17;;;7.00;99.90;;;;;;5110826;28;20293;-90
2022/11/22 05:26:26;;;;;;;9.53;6.23;;;6.90;99.90;;;;;;5114623;27;20198;-89
2022/11/22 05:28:57;;;;;;;9.57;6.73;;;6.90;99.90;;;;;;5114367;27;20195;-88
2022/11/22 05:31:29;;;;;;;11.00;6.27;;;6.90;99.90;;;;;;5110292;28;20607;-88
2022/11/22 05:33:59;;;;;;;9.17;6.30;;;6.90;99.90;;;;;;5121977;27;20197;-89
2022/11/22 05:36:33;;;;;;;9.57;6.90;;;7.00;99.90;;;;;;5122656;27;20340;-88
2022/11/22 05:39:06;;;;;;;8.20;6.37;;;6.90;99.90;;;;;;5110181;28;20202;-90
2022/11/22 05:41:37;;;;;;;7.70;6.10;;;6.80;99.90;;;;;;5114248;28;20210;-89
2022/11/22 05:44:08;;;;;;;7.83;6.10;;;6.80;99.90;;;;;;5104280;28;20222;-90
2022/11/22 05:46:39;;;;;;;9.73;6.20;;;6.70;99.90;;;;;;5098875;28;20222;-90
2022/11/22 05:49:10;;;;;;;9.70;6.67;;;6.60;99.90;;;;;;5114001;28;20730;-88
2022/11/22 05:51:42;;;;;;;7.40;6.17;;;6.50;99.90;;;;;;5105859;28;20276;-90
2022/11/22 05:54:14;;;;;;;12.10;6.60;;;6.50;99.90;;;;;;5099503;28;20575;-89
2022/11/22 05:56:47;;;;;;;8.17;5.93;;;6.40;99.90;;;;;;5110668;28;20301;-88
2022/11/22 05:59:18;;;;;;;7.60;5.57;;;6.40;99.90;;;;;;5101111;28;20749;-89
2022/11/22 06:01:48;;;;;;;10.60;5.73;;;6.40;99.90;;;;;;5116767;27;20230;-89
2022/11/22 06:04:19;;;;;;;9.23;5.33;;;6.30;99.90;;;;;;5114604;28;20571;-89
2022/11/22 06:06:51;;;;;;;8.07;5.33;;;6.30;99.90;;;;;;5096944;28;20258;-89
2022/11/22 06:09:23;;;;;;;10.90;5.40;;;6.30;99.90;;;;;;5115102;28;20213;-88
2022/11/22 06:11:54;;;;;;;8.30;5.47;;;6.30;99.90;;;;;;5115054;28;20293;-88
2022/11/22 06:14:25;;;;;;;8.90;6.20;;;6.30;99.90;;;;;;5115196;28;20226;-90
2022/11/22 06:16:56;;;;;;;7.73;5.27;;;6.30;99.90;;;;;;5112160;27;20487;-91
2022/11/22 06:19:27;;;;;;;11.27;5.70;;;6.20;99.90;;;;;;5124402;27;20201;-89
2022/11/22 06:21:58;;;;;;;10.20;6.20;;;6.20;99.90;;;;;;5129324;27;20197;-92
2022/11/22 06:24:31;;;;;;;7.03;5.13;;;6.20;99.90;;;;;;5120645;27;20236;-91
2022/11/22 06:27:02;;;;;;;7.13;5.20;;;6.20;99.90;;;;;;5125653;27;20209;-90
2022/11/22 06:29:33;;;;;;;7.33;5.20;;;6.20;99.90;;;;;;5116873;27;20202;-90
2022/11/22 06:32:05;;;;;;;7.97;5.10;;;6.20;99.90;;;;;;5103510;28;20671;-89
2022/11/22 06:34:35;;;;;;;7.10;5.10;;;6.20;99.90;;;;;;5102726;28;20312;-89
2022/11/22 06:37:06;;;;;;;7.50;5.30;;;6.20;99.90;;;;;;5112612;27;20206;-88
2022/11/22 06:39:40;;;;;;;8.83;5.33;;;6.20;99.90;;;;;;5100933;28;20251;-89
2022/11/22 06:42:12;;;;;;;8.40;5.03;;;6.10;99.90;;;;;;5104569;28;20237;-88
2022/11/22 06:44:42;;;;;;;9.30;5.30;;;6.10;99.90;;;;;;5101147;27;20571;-89
2022/11/22 06:47:13;;;;;;;7.07;5.20;;;6.00;99.90;;;;;;5106538;28;20301;-91
2022/11/22 06:49:45;;;;;;;7.57;5.43;;;6.00;99.90;;;;;;5106846;27;20622;-89
2022/11/22 06:52:16;;;;;;;7.37;5.20;;;5.90;99.90;;;;;;4755817;27;10000295;-90
2022/11/22 06:54:49;;;;;;;7.20;5.30;;;5.90;99.90;;;;;;5106750;27;20202;-90
2022/11/22 06:57:21;;;;;;;7.00;5.10;;;5.90;99.90;;;;;;5103147;27;20241;-89
2022/11/22 06:59:52;;;;;;;6.43;4.80;;;5.80;99.90;;;;;;5104380;27;20207;-89
2022/11/22 07:02:23;;;;;;;8.67;5.27;;;5.80;99.90;;;;;;5116352;27;20210;-88
2022/11/22 07:04:54;;;;;;;7.43;5.23;;;5.80;99.90;;;;;;5111047;28;20202;-89
2022/11/22 07:07:46;;;;;;;7.63;5.37;;;5.80;99.90;;;;;;5111525;28;20206;-89
2022/11/22 07:10:19;;;;;;;7.13;5.40;;;5.70;99.90;;;;;;5103623;28;20690;-89
2022/11/22 07:12:50;;;;;;;7.17;4.87;;;5.80;99.90;;;;;;5106133;28;20264;-89
2022/11/22 07:15:21;;;;;;;9.30;5.40;;;5.70;99.90;;;;;;5108241;28;20356;-88
2022/11/22 07:17:52;;;;;;;7.57;5.50;;;5.70;99.90;;;;;;5110445;28;20284;-89
2022/11/22 07:20:22;;;;;;;8.87;6.20;;;5.70;99.90;;;;;;5112232;28;20277;-89
2022/11/22 07:22:54;;;;;;;7.30;5.57;;;5.70;99.90;;;;;;5111889;27;20278;-89
2022/11/22 07:25:26;;;;;;;6.17;5.07;;;5.60;99.90;;;;;;5091501;28;20246;-90
2022/11/22 07:27:57;;;;;;;9.43;4.90;;;5.60;99.90;;;;;;5110363;28;20227;-90
2022/11/22 07:30:28;;;;;;;6.63;4.57;;;5.70;99.90;;;;;;5111173;28;20241;-89
2022/11/22 07:32:59;;;;;;;7.13;5.00;;;5.70;99.90;;;;;;5105475;28;20206;-90
2022/11/22 07:35:33;;;;;;;6.27;4.33;;;5.70;99.90;;;;;;5109948;28;20317;-91
2022/11/22 07:38:10;;;;;;;6.43;4.83;;;5.70;99.90;;;;;;5101656;28;20231;-92
2022/11/22 07:40:43;;;;;;;8.53;4.70;;;5.90;99.90;;;;;;5111466;28;20236;-89
2022/11/22 07:43:14;;;;;;;6.57;4.70;;;6.00;99.90;;;;;;5114878;28;20229;-89
2022/11/22 07:45:45;;;;;;;7.63;4.17;;;6.00;99.90;;;;;;5117921;28;20285;-89
2022/11/22 07:48:17;;;;;;;8.27;4.70;;;6.30;99.90;;;;;;5112966;28;20205;-88
2022/11/22 07:50:48;;;;;;;6.67;4.27;;;6.80;99.90;;;;;;5103883;28;20210;-89
2022/11/22 07:53:24;;;;;;;6.87;4.47;;;6.90;99.90;;;;;;5113328;28;20278;-90
2022/11/22 07:55:58;;;;;;;6.47;4.67;;;7.10;99.90;;;;;;5101941;28;20316;-88
2022/11/22 07:58:28;;;;;;;7.50;4.63;;;7.30;99.90;;;;;;5113883;28;20637;-89
2022/11/22 08:00:59;;;;;;;5.00;4.10;;;7.40;99.90;;;;;;5103887;28;20216;-88
2022/11/22 08:03:31;;;;;;;6.40;4.70;;;7.40;99.90;;;;;;5093263;28;20222;-88
2022/11/22 08:06:02;;;;;;;4.90;3.77;;;7.40;99.90;;;;;;5105968;28;21079;-88
2022/11/22 08:08:33;;;;;;;6.60;4.10;;;7.40;99.90;;;;;;5098022;28;20297;-87
2022/11/22 08:11:07;;;;;;;5.43;4.00;;;7.60;99.90;;;;;;5099775;28;20567;-89
2022/11/22 08:13:38;;;;;;;5.73;3.50;;;7.80;99.90;;;;;;5102646;28;20218;-89
2022/11/22 08:16:11;;;;;;;6.87;4.03;;;8.00;99.90;;;;;;5104693;28;20270;-88
2022/11/22 08:18:46;;;;;;;5.90;4.07;;;8.20;99.90;;;;;;5100584;28;20233;-88
2022/11/22 08:21:18;;;;;;;6.47;4.30;;;8.30;99.90;;;;;;5110753;28;20293;-88
2022/11/22 08:23:49;;;;;;;5.70;4.23;;;8.30;99.90;;;;;;5116217;28;20241;-88
2022/11/22 08:26:22;;;;;;;6.67;5.00;;;8.30;99.90;;;;;;5100433;28;20674;-89
2022/11/22 08:28:53;;;;;;;6.63;4.73;;;8.40;99.90;;;;;;5122241;27;20230;-90
2022/11/22 08:31:25;;;;;;;5.70;4.27;;;8.60;99.90;;;;;;5137535;28;20201;-90
2022/11/22 08:33:56;;;;;;;5.67;4.00;;;8.60;99.90;;;;;;5136160;28;20194;-89
2022/11/22 08:36:29;;;;;;;5.40;4.00;;;8.60;99.90;;;;;;5132170;28;20629;-89
2022/11/22 08:38:59;;;;;;;4.63;3.40;;;8.70;99.90;;;;;;5127437;28;20217;-88
2022/11/22 08:41:32;;;;;;;4.47;3.80;;;8.60;99.90;;;;;;5112145;28;20298;-90
2022/11/22 08:44:03;;;;;;;5.17;3.77;;;8.50;99.90;;;;;;5098702;28;20206;-88
2022/11/22 08:46:35;;;;;;;4.60;3.50;;;8.50;99.90;;;;;;5104309;28;20286;-89
2022/11/22 08:49:06;;;;;;;4.30;3.57;;;8.40;99.90;;;;;;5112663;28;20670;-90
2022/11/22 08:51:37;;;;;;;5.37;4.13;;;8.40;99.90;;;;;;5117117;28;20230;-89
2022/11/22 08:54:08;;;;;;;5.70;3.97;;;8.30;99.90;;;;;;5115844;28;20245;-90
2022/11/22 08:56:41;;;;;;;3.97;3.20;;;8.30;99.90;;;;;;5106300;28;20245;-89
2022/11/22 08:59:12;;;;;;;4.23;3.43;;;8.20;99.90;;;;;;5114678;28;20202;-89
2022/11/22 09:01:43;;;;;;;7.73;3.80;;;8.30;99.90;;;;;;5115955;28;20655;-88
2022/11/22 09:04:14;;;;;;;5.73;4.07;;;8.20;99.90;;;;;;5114914;28;20401;-89
2022/11/22 09:06:45;;;;;;;8.70;4.20;;;8.20;99.90;;;;;;5114076;27;20297;-88
2022/11/22 09:09:36;;;;;;;6.47;4.27;;;8.20;99.90;;;;;;5114162;28;20201;-88
2022/11/22 09:12:09;;;;;;;5.67;3.93;;;8.10;99.90;;;;;;5096088;27;20214;-89
2022/11/22 09:14:40;;;;;;;5.17;4.23;;;8.10;99.90;;;;;;5093981;28;20267;-89
2022/11/22 09:17:11;;;;;;;5.67;4.50;;;8.10;99.90;;;;;;5100991;28;20222;-89
2022/11/22 09:19:46;;;;;;;7.50;4.33;;;8.10;99.90;;;;;;5093827;28;20228;-91
2022/11/22 09:22:17;;;;;;;5.87;3.97;;;8.10;99.90;;;;;;5092352;28;20286;-87
2022/11/22 09:24:54;;;;;;;8.83;4.57;;;8.00;99.90;;;;;;5093380;28;20211;-88
2022/11/22 09:27:26;;;;;;;6.43;4.70;;;8.00;99.90;;;;;;5103939;28;20217;-90
2022/11/22 09:29:57;;;;;;;7.03;4.50;;;8.00;99.90;;;;;;5113708;28;20647;-89
2022/11/22 09:32:28;;;;;;;8.33;4.60;;;7.90;99.90;;;;;;5112846;28;20206;-89
2022/11/22 09:35:02;;;;;;;5.83;4.20;;;7.90;99.90;;;;;;5116835;27;20221;-87
2022/11/22 09:37:33;;;;;;;6.33;4.73;;;7.90;99.90;;;;;;5117081;28;20226;-89
2022/11/22 09:40:05;;;;;;;7.37;5.00;;;7.90;99.90;;;;;;5116913;28;20269;-89
2022/11/22 09:42:56;;;;;;;6.90;4.57;;;7.80;99.90;;;;;;5112815;28;20246;-88
2022/11/22 09:46:01;;;;;;;5.80;4.50;;;7.80;99.90;;;;;;5096284;28;20207;-89
2022/11/22 09:48:47;;;;;;;5.13;4.60;;;7.80;99.90;;;;;;5092825;28;20286;-88
2022/11/22 09:51:22;;;;;;;5.30;4.30;;;7.70;99.90;;;;;;5093120;28;20326;-89
2022/11/22 09:53:56;;;;;;;6.50;5.13;;;7.70;99.90;;;;;;5093084;28;20216;-89
2022/11/22 09:56:28;;;;;;;8.33;4.77;;;7.70;99.90;;;;;;5092289;28;20293;-90
2022/11/22 09:59:05;;;;;;;8.57;4.70;;;7.70;99.90;;;;;;5092952;28;20674;-88
2022/11/22 10:01:40;;;;;;;6.63;5.07;;;7.70;99.90;;;;;;5092803;28;20263;-90
2022/11/22 10:04:15;;;;;;;5.40;4.47;;;7.70;99.90;;;;;;5092493;28;20242;-89
2022/11/22 10:06:51;;;;;;;6.93;4.43;;;7.70;99.90;;;;;;5093111;28;20282;-90
2022/11/22 10:09:31;;;;;;;5.30;4.80;;;7.60;99.90;;;;;;5110288;28;20684;-88
2022/11/22 10:12:08;;;;;;;6.10;4.53;;;7.50;99.90;;;;;;5112879;27;20240;-89
2022/11/22 10:14:48;;;;;;;5.63;4.50;;;7.40;99.90;;;;;;5112818;28;20364;-88
2022/11/22 10:17:29;;;;;;;6.20;4.80;;;7.40;99.90;;;;;;5105205;28;20230;-88
2022/11/22 10:20:06;;;;;;;7.53;4.70;;;7.50;99.90;;;;;;5093300;28;20264;-89
2022/11/22 10:22:37;;;;;;;3.83;3.40;;;7.50;99.90;;;;;;5112161;28;20313;-89
2022/11/22 10:25:17;;;;;;;5.73;3.47;;;7.50;99.90;;;;;;5113538;28;20289;-88
2022/11/22 10:27:52;;;;;;;3.80;3.40;;;7.80;99.90;;;;;;5113926;28;20576;-88
2022/11/22 10:30:37;;;;;;;4.27;2.97;;;8.20;99.90;;;;;;5118363;27;20205;-90
2022/11/22 10:33:16;;;;;;;3.67;3.10;;;8.30;99.90;;;;;;5130449;27;20736;-89
2022/11/22 10:36:07;;;;;;;5.07;3.40;;;8.40;99.90;;;;;;5114339;27;21180;-89
2022/11/22 10:38:53;;;;;;;3.90;3.07;;;8.40;99.90;;;;;;5097972;28;20290;-88
2022/11/22 10:41:35;;;;;;;4.53;2.87;;;8.40;99.90;;;;;;5097410;28;20207;-88
2022/11/22 10:44:18;;;;;;;5.53;3.13;;;8.30;99.90;;;;;;5105048;28;20201;-89
2022/11/22 10:46:58;;;;;;;6.60;3.77;;;8.30;99.90;;;;;;5125949;28;20275;-90
2022/11/22 10:49:42;;;;;;;6.57;4.27;;;8.30;99.90;;;;;;5124007;27;20293;-90
2022/11/22 10:52:20;;;;;;;7.07;4.20;;;8.20;99.90;;;;;;5112142;28;20209;-89
2022/11/22 10:54:57;;;;;;;5.67;4.17;;;8.10;99.90;;;;;;5119649;27;20292;-87
2022/11/22 10:57:40;;;;;;;7.27;4.60;;;8.00;99.90;;;;;;5113665;27;20233;-89
2022/11/22 11:00:19;;;;;;;4.63;3.90;;;8.00;99.90;;;;;;5113423;28;20269;-87
2022/11/22 11:03:15;;;;;;;5.47;4.10;;;7.90;99.90;;;;;;5111538;28;20297;-89
2022/11/22 11:05:50;;;;;;;6.00;4.23;;;7.90;99.90;;;;;;5112789;28;20214;-88
2022/11/22 11:08:46;;;;;;;4.80;3.97;;;7.80;99.90;;;;;;5112240;28;20208;-90
2022/11/22 11:11:39;;;;;;;5.20;3.90;;;7.80;99.90;;;;;;5108071;28;20420;-89
2022/11/22 11:14:25;;;;;;;7.93;4.47;;;7.80;99.90;;;;;;5090914;28;20199;-88
2022/11/22 11:16:56;;;;;;;7.50;4.40;;;7.80;99.90;;;;;;5092747;28;20972;-89
2022/11/22 11:19:33;;;;;;;5.57;4.13;;;7.80;99.90;;;;;;5094494;28;20229;-89
2022/11/22 11:22:17;;;;;;;4.87;4.10;;;7.70;99.90;;;;;;5093086;28;20589;-89
2022/11/22 11:25:39;;;;;;;7.57;4.17;;;7.70;99.90;;;;;;5093989;28;20220;-89
2022/11/22 11:28:13;;;;;;;5.33;3.83;;;7.70;99.90;;;;;;5067463;28;20277;-89
2022/11/22 11:30:49;;;;;;;5.33;4.03;;;7.60;99.90;;;;;;5109107;28;21008;-89
